sensor_id;sensor_type;location;lat;lon;timestamp;temperature;humidity
18712;DHT22;9485;49.386;8.674;2022-09-09T00:01:51;19.60;80.70
18712;DHT22;9485;49.386;8.674;2022-09-09T00:07:25;19.60;81.00
18712;DHT22;9485;49.386;8.674;2022-09-09T00:13:00;19.60;81.20
18712;DHT22;9485;49.386;8.674;2022-09-09T00:18:30;19.50;81.50
18712;DHT22;9485;49.386;8.674;2022-09-09T00:24:04;19.50;81.70
18712;DHT22;9485;49.386;8.674;2022-09-09T00:29:35;19.50;81.80
18712;DHT22;9485;49.386;8.674;2022-09-09T00:35:04;19.60;81.90
18712;DHT22;9485;49.386;8.674;2022-09-09T00:40:43;19.60;82.40
18712;DHT22;9485;49.386;8.674;2022-09-09T00:46:23;19.60;82.10
18712;DHT22;9485;49.386;8.674;2022-09-09T00:52:02;19.70;81.80
18712;DHT22;9485;49.386;8.674;2022-09-09T00:57:34;19.80;82.30
18712;DHT22;9485;49.386;8.674;2022-09-09T01:03:08;19.90;82.00
18712;DHT22;9485;49.386;8.674;2022-09-09T01:08:52;20.00;81.10
18712;DHT22;9485;49.386;8.674;2022-09-09T01:14:38;20.10;80.00
18712;DHT22;9485;49.386;8.674;2022-09-09T01:20:10;20.20;79.40
18712;DHT22;9485;49.386;8.674;2022-09-09T01:26:08;20.30;79.90
18712;DHT22;9485;49.386;8.674;2022-09-09T01:31:37;20.40;78.00
18712;DHT22;9485;49.386;8.674;2022-09-09T01:37:03;20.50;79.00
18712;DHT22;9485;49.386;8.674;2022-09-09T01:42:29;20.50;78.80
18712;DHT22;9485;49.386;8.674;2022-09-09T01:47:52;20.60;79.00
18712;DHT22;9485;49.386;8.674;2022-09-09T01:53:22;20.70;79.10
18712;DHT22;9485;49.386;8.674;2022-09-09T01:58:56;20.70;78.90
18712;DHT22;9485;49.386;8.674;2022-09-09T02:04:36;20.70;77.30
18712;DHT22;9485;49.386;8.674;2022-09-09T02:10:09;20.70;77.30
18712;DHT22;9485;49.386;8.674;2022-09-09T02:15:45;20.70;77.50
18712;DHT22;9485;49.386;8.674;2022-09-09T02:21:13;20.70;77.10
18712;DHT22;9485;49.386;8.674;2022-09-09T02:26:40;20.60;77.40
18712;DHT22;9485;49.386;8.674;2022-09-09T02:32:11;20.60;77.40
18712;DHT22;9485;49.386;8.674;2022-09-09T02:37:37;20.50;77.30
18712;DHT22;9485;49.386;8.674;2022-09-09T02:43:00;20.50;77.30
18712;DHT22;9485;49.386;8.674;2022-09-09T02:48:30;20.50;77.80
18712;DHT22;9485;49.386;8.674;2022-09-09T02:54:02;20.50;77.40
18712;DHT22;9485;49.386;8.674;2022-09-09T02:59:27;20.40;77.70
18712;DHT22;9485;49.386;8.674;2022-09-09T03:04:51;20.40;77.90
18712;DHT22;9485;49.386;8.674;2022-09-09T03:10:12;20.30;77.60
18712;DHT22;9485;49.386;8.674;2022-09-09T03:15:35;20.30;78.20
18712;DHT22;9485;49.386;8.674;2022-09-09T03:20:59;20.20;78.10
18712;DHT22;9485;49.386;8.674;2022-09-09T03:26:21;20.10;78.10
18712;DHT22;9485;49.386;8.674;2022-09-09T03:31:42;20.00;78.30
18712;DHT22;9485;49.386;8.674;2022-09-09T03:37:05;20.00;78.30
18712;DHT22;9485;49.386;8.674;2022-09-09T03:42:26;19.90;78.30
18712;DHT22;9485;49.386;8.674;2022-09-09T03:47:48;19.80;78.50
18712;DHT22;9485;49.386;8.674;2022-09-09T03:53:11;19.80;78.60
18712;DHT22;9485;49.386;8.674;2022-09-09T03:58:33;19.70;78.60
18712;DHT22;9485;49.386;8.674;2022-09-09T04:03:59;19.70;79.20
18712;DHT22;9485;49.386;8.674;2022-09-09T04:09:23;19.70;79.20
18712;DHT22;9485;49.386;8.674;2022-09-09T04:14:45;19.60;79.20
18712;DHT22;9485;49.386;8.674;2022-09-09T04:20:06;19.60;79.40
18712;DHT22;9485;49.386;8.674;2022-09-09T04:25:32;19.60;79.40
18712;DHT22;9485;49.386;8.674;2022-09-09T04:30:53;19.60;79.50
18712;DHT22;9485;49.386;8.674;2022-09-09T04:36:15;19.60;79.60
18712;DHT22;9485;49.386;8.674;2022-09-09T04:41:39;19.60;79.60
18712;DHT22;9485;49.386;8.674;2022-09-09T04:47:02;19.60;79.60
18712;DHT22;9485;49.386;8.674;2022-09-09T04:52:23;19.60;79.60
18712;DHT22;9485;49.386;8.674;2022-09-09T04:57:45;19.60;79.80
18712;DHT22;9485;49.386;8.674;2022-09-09T05:03:06;19.60;79.80
18712;DHT22;9485;49.386;8.674;2022-09-09T05:08:28;19.60;79.90
18712;DHT22;9485;49.386;8.674;2022-09-09T05:13:50;19.60;80.00
18712;DHT22;9485;49.386;8.674;2022-09-09T05:19:11;19.60;79.80
18712;DHT22;9485;49.386;8.674;2022-09-09T05:24:41;19.70;80.00
18712;DHT22;9485;49.386;8.674;2022-09-09T05:30:04;19.70;80.00
18712;DHT22;9485;49.386;8.674;2022-09-09T05:35:27;19.70;79.80
18712;DHT22;9485;49.386;8.674;2022-09-09T05:40:49;19.70;80.00
18712;DHT22;9485;49.386;8.674;2022-09-09T05:46:14;19.80;80.20
18712;DHT22;9485;49.386;8.674;2022-09-09T05:51:37;19.80;79.90
18712;DHT22;9485;49.386;8.674;2022-09-09T05:57:03;19.80;80.20
18712;DHT22;9485;49.386;8.674;2022-09-09T06:02:27;19.80;80.30
18712;DHT22;9485;49.386;8.674;2022-09-09T06:07:48;19.90;80.20
18712;DHT22;9485;49.386;8.674;2022-09-09T06:13:12;20.00;80.30
18712;DHT22;9485;49.386;8.674;2022-09-09T06:18:35;20.10;80.00
18712;DHT22;9485;49.386;8.674;2022-09-09T06:23:56;20.10;79.90
18712;DHT22;9485;49.386;8.674;2022-09-09T06:29:18;20.20;80.30
18712;DHT22;9485;49.386;8.674;2022-09-09T06:34:40;20.30;80.30
18712;DHT22;9485;49.386;8.674;2022-09-09T06:40:02;20.40;80.00
18712;DHT22;9485;49.386;8.674;2022-09-09T06:45:24;20.50;80.20
18712;DHT22;9485;49.386;8.674;2022-09-09T06:50:50;20.70;79.70
18712;DHT22;9485;49.386;8.674;2022-09-09T06:56:19;20.80;79.60
18712;DHT22;9485;49.386;8.674;2022-09-09T07:01:44;20.90;78.70
18712;DHT22;9485;49.386;8.674;2022-09-09T07:07:08;21.10;79.30
18712;DHT22;9485;49.386;8.674;2022-09-09T07:12:31;21.20;78.90
18712;DHT22;9485;49.386;8.674;2022-09-09T07:17:53;21.40;79.20
18712;DHT22;9485;49.386;8.674;2022-09-09T07:23:22;21.50;78.70
18712;DHT22;9485;49.386;8.674;2022-09-09T07:28:44;21.70;77.60
18712;DHT22;9485;49.386;8.674;2022-09-09T07:34:05;21.70;77.90
18712;DHT22;9485;49.386;8.674;2022-09-09T07:39:28;21.80;77.90
18712;DHT22;9485;49.386;8.674;2022-09-09T07:44:49;22.00;78.90
18712;DHT22;9485;49.386;8.674;2022-09-09T07:50:14;22.70;80.60
18712;DHT22;9485;49.386;8.674;2022-09-09T07:55:37;23.50;78.50
18712;DHT22;9485;49.386;8.674;2022-09-09T08:00:58;24.10;77.50
18712;DHT22;9485;49.386;8.674;2022-09-09T08:06:18;24.90;76.50
18712;DHT22;9485;49.386;8.674;2022-09-09T08:11:41;25.80;76.00
18712;DHT22;9485;49.386;8.674;2022-09-09T08:17:02;26.70;73.50
18712;DHT22;9485;49.386;8.674;2022-09-09T08:22:26;27.50;70.40
18712;DHT22;9485;49.386;8.674;2022-09-09T08:27:52;27.70;67.10
18712;DHT22;9485;49.386;8.674;2022-09-09T08:33:13;27.60;64.90
18712;DHT22;9485;49.386;8.674;2022-09-09T08:38:34;27.40;65.60
18712;DHT22;9485;49.386;8.674;2022-09-09T08:44:03;27.30;64.20
18712;DHT22;9485;49.386;8.674;2022-09-09T08:49:43;27.00;62.00
18712;DHT22;9485;49.386;8.674;2022-09-09T08:55:20;26.60;61.40
18712;DHT22;9485;49.386;8.674;2022-09-09T09:01:16;26.20;63.00
18712;DHT22;9485;49.386;8.674;2022-09-09T09:07:11;25.50;63.00
18712;DHT22;9485;49.386;8.674;2022-09-09T09:12:43;24.80;64.00
18712;DHT22;9485;49.386;8.674;2022-09-09T09:18:12;24.30;65.80
18712;DHT22;9485;49.386;8.674;2022-09-09T09:23:41;24.10;66.80
18712;DHT22;9485;49.386;8.674;2022-09-09T09:29:10;24.10;68.00
18712;DHT22;9485;49.386;8.674;2022-09-09T09:34:35;24.50;68.80
18712;DHT22;9485;49.386;8.674;2022-09-09T09:40:06;25.20;70.50
18712;DHT22;9485;49.386;8.674;2022-09-09T09:45:33;26.40;69.80
18712;DHT22;9485;49.386;8.674;2022-09-09T09:51:00;27.50;65.30
18712;DHT22;9485;49.386;8.674;2022-09-09T09:56:31;28.40;66.50
18712;DHT22;9485;49.386;8.674;2022-09-09T10:02:11;29.30;64.50
18712;DHT22;9485;49.386;8.674;2022-09-09T10:07:37;29.50;57.30
18712;DHT22;9485;49.386;8.674;2022-09-09T10:13:02;29.10;58.50
18712;DHT22;9485;49.386;8.674;2022-09-09T10:18:46;28.40;59.00
18712;DHT22;9485;49.386;8.674;2022-09-09T10:30:39;27.00;59.30
18712;DHT22;9485;49.386;8.674;2022-09-09T10:36:13;26.60;60.50
18712;DHT22;9485;49.386;8.674;2022-09-09T10:41:48;26.30;61.00
18712;DHT22;9485;49.386;8.674;2022-09-09T10:47:28;26.20;63.00
18712;DHT22;9485;49.386;8.674;2022-09-09T10:53:10;26.10;61.80
18712;DHT22;9485;49.386;8.674;2022-09-09T10:58:41;26.90;62.30
18712;DHT22;9485;49.386;8.674;2022-09-09T11:04:13;27.70;61.00
18712;DHT22;9485;49.386;8.674;2022-09-09T11:09:41;28.10;59.60
18712;DHT22;9485;49.386;8.674;2022-09-09T11:15:17;28.50;60.70
18712;DHT22;9485;49.386;8.674;2022-09-09T11:20:43;29.30;57.30
18712;DHT22;9485;49.386;8.674;2022-09-09T11:26:08;29.70;58.40
18712;DHT22;9485;49.386;8.674;2022-09-09T11:31:44;30.00;58.30
18712;DHT22;9485;49.386;8.674;2022-09-09T11:37:31;30.70;55.20
18712;DHT22;9485;49.386;8.674;2022-09-09T11:43:09;31.30;54.10
18712;DHT22;9485;49.386;8.674;2022-09-09T11:48:35;31.60;54.50
18712;DHT22;9485;49.386;8.674;2022-09-09T11:53:58;31.60;53.40
18712;DHT22;9485;49.386;8.674;2022-09-09T11:59:24;31.60;54.90
18712;DHT22;9485;49.386;8.674;2022-09-09T12:04:59;31.80;54.00
18712;DHT22;9485;49.386;8.674;2022-09-09T12:10:30;32.00;51.60
18712;DHT22;9485;49.386;8.674;2022-09-09T12:15:54;31.80;52.80
18712;DHT22;9485;49.386;8.674;2022-09-09T12:21:25;31.40;53.10
18712;DHT22;9485;49.386;8.674;2022-09-09T12:26:59;31.30;52.30
18712;DHT22;9485;49.386;8.674;2022-09-09T12:32:27;31.00;52.30
18712;DHT22;9485;49.386;8.674;2022-09-09T12:37:53;30.40;53.60
18712;DHT22;9485;49.386;8.674;2022-09-09T12:43:17;30.00;54.00
18712;DHT22;9485;49.386;8.674;2022-09-09T12:48:41;30.20;55.00
18712;DHT22;9485;49.386;8.674;2022-09-09T12:54:04;30.50;55.90
18712;DHT22;9485;49.386;8.674;2022-09-09T12:59:26;30.70;53.90
18712;DHT22;9485;49.386;8.674;2022-09-09T13:05:06;30.30;53.40
18712;DHT22;9485;49.386;8.674;2022-09-09T13:10:40;30.00;51.40
18712;DHT22;9485;49.386;8.674;2022-09-09T13:16:06;29.70;53.00
18712;DHT22;9485;49.386;8.674;2022-09-09T13:21:39;29.40;53.40
18712;DHT22;9485;49.386;8.674;2022-09-09T13:27:03;28.90;53.40
18712;DHT22;9485;49.386;8.674;2022-09-09T13:32:26;28.30;53.00
18712;DHT22;9485;49.386;8.674;2022-09-09T13:37:47;27.70;53.40
18712;DHT22;9485;49.386;8.674;2022-09-09T13:43:18;27.00;53.40
18712;DHT22;9485;49.386;8.674;2022-09-09T13:48:54;26.20;54.30
18712;DHT22;9485;49.386;8.674;2022-09-09T13:54:17;25.20;55.20
18712;DHT22;9485;49.386;8.674;2022-09-09T13:59:40;24.20;57.00
18712;DHT22;9485;49.386;8.674;2022-09-09T14:05:01;23.40;58.40
18712;DHT22;9485;49.386;8.674;2022-09-09T14:10:21;22.90;60.00
18712;DHT22;9485;49.386;8.674;2022-09-09T14:15:43;22.50;61.60
18712;DHT22;9485;49.386;8.674;2022-09-09T14:21:05;22.30;62.30
18712;DHT22;9485;49.386;8.674;2022-09-09T14:26:25;22.40;64.10
18712;DHT22;9485;49.386;8.674;2022-09-09T14:31:49;22.70;65.50
18712;DHT22;9485;49.386;8.674;2022-09-09T14:37:12;23.30;65.50
18712;DHT22;9485;49.386;8.674;2022-09-09T14:42:33;23.80;64.80
18712;DHT22;9485;49.386;8.674;2022-09-09T14:47:54;24.30;63.60
18712;DHT22;9485;49.386;8.674;2022-09-09T14:53:16;24.50;61.90
18712;DHT22;9485;49.386;8.674;2022-09-09T14:58:37;24.70;61.60
18712;DHT22;9485;49.386;8.674;2022-09-09T15:04:02;24.60;61.30
18712;DHT22;9485;49.386;8.674;2022-09-09T15:09:24;24.50;60.60
18712;DHT22;9485;49.386;8.674;2022-09-09T15:14:45;24.30;61.30
18712;DHT22;9485;49.386;8.674;2022-09-09T15:20:08;24.10;61.60
18712;DHT22;9485;49.386;8.674;2022-09-09T15:25:29;24.00;62.10
18712;DHT22;9485;49.386;8.674;2022-09-09T15:30:50;23.90;63.00
18712;DHT22;9485;49.386;8.674;2022-09-09T15:36:17;23.90;63.70
18712;DHT22;9485;49.386;8.674;2022-09-09T15:41:41;23.80;62.70
18712;DHT22;9485;49.386;8.674;2022-09-09T15:47:02;23.70;62.50
18712;DHT22;9485;49.386;8.674;2022-09-09T15:52:25;23.40;62.50
18712;DHT22;9485;49.386;8.674;2022-09-09T15:57:46;22.80;63.70
18712;DHT22;9485;49.386;8.674;2022-09-09T16:03:07;22.00;66.10
18712;DHT22;9485;49.386;8.674;2022-09-09T16:08:33;21.40;68.60
18712;DHT22;9485;49.386;8.674;2022-09-09T16:13:55;21.20;71.90
18712;DHT22;9485;49.386;8.674;2022-09-09T16:19:16;20.90;72.80
18712;DHT22;9485;49.386;8.674;2022-09-09T16:24:38;20.80;73.90
18712;DHT22;9485;49.386;8.674;2022-09-09T16:29:59;20.70;75.00
18712;DHT22;9485;49.386;8.674;2022-09-09T16:35:20;20.60;75.70
18712;DHT22;9485;49.386;8.674;2022-09-09T16:40:42;20.40;76.70
18712;DHT22;9485;49.386;8.674;2022-09-09T16:46:12;20.40;77.50
18712;DHT22;9485;49.386;8.674;2022-09-09T16:51:36;20.30;78.70
18712;DHT22;9485;49.386;8.674;2022-09-09T16:57:00;20.20;79.30
18712;DHT22;9485;49.386;8.674;2022-09-09T17:02:21;20.10;80.20
18712;DHT22;9485;49.386;8.674;2022-09-09T17:07:42;20.10;81.00
18712;DHT22;9485;49.386;8.674;2022-09-09T17:13:05;20.10;81.80
18712;DHT22;9485;49.386;8.674;2022-09-09T17:18:27;20.10;82.70
18712;DHT22;9485;49.386;8.674;2022-09-09T17:23:48;20.10;83.10
18712;DHT22;9485;49.386;8.674;2022-09-09T17:29:11;20.00;83.50
18712;DHT22;9485;49.386;8.674;2022-09-09T17:34:31;20.00;83.90
18712;DHT22;9485;49.386;8.674;2022-09-09T17:39:52;19.90;83.80
18712;DHT22;9485;49.386;8.674;2022-09-09T17:45:14;19.90;83.90
18712;DHT22;9485;49.386;8.674;2022-09-09T17:50:35;19.80;84.20
18712;DHT22;9485;49.386;8.674;2022-09-09T17:56:02;19.80;84.10
18712;DHT22;9485;49.386;8.674;2022-09-09T18:01:26;19.70;84.00
18712;DHT22;9485;49.386;8.674;2022-09-09T18:06:51;19.70;84.40
18712;DHT22;9485;49.386;8.674;2022-09-09T18:12:13;19.70;84.80
18712;DHT22;9485;49.386;8.674;2022-09-09T18:17:35;19.60;84.90
18712;DHT22;9485;49.386;8.674;2022-09-09T18:22:56;19.60;85.30
18712;DHT22;9485;49.386;8.674;2022-09-09T18:28:16;19.60;85.70
18712;DHT22;9485;49.386;8.674;2022-09-09T18:33:41;19.50;86.10
18712;DHT22;9485;49.386;8.674;2022-09-09T18:39:05;19.50;86.10
18712;DHT22;9485;49.386;8.674;2022-09-09T18:44:29;19.50;86.40
18712;DHT22;9485;49.386;8.674;2022-09-09T18:49:53;19.50;85.00
18712;DHT22;9485;49.386;8.674;2022-09-09T18:55:15;19.40;84.40
18712;DHT22;9485;49.386;8.674;2022-09-09T19:00:36;19.40;85.50
18712;DHT22;9485;49.386;8.674;2022-09-09T19:06:02;19.30;85.60
18712;DHT22;9485;49.386;8.674;2022-09-09T19:11:27;19.20;85.90
18712;DHT22;9485;49.386;8.674;2022-09-09T19:16:48;19.10;86.20
18712;DHT22;9485;49.386;8.674;2022-09-09T19:22:11;19.10;86.30
18712;DHT22;9485;49.386;8.674;2022-09-09T19:27:33;19.00;86.20
18712;DHT22;9485;49.386;8.674;2022-09-09T19:32:54;18.90;86.20
18712;DHT22;9485;49.386;8.674;2022-09-09T19:38:16;18.80;86.60
18712;DHT22;9485;49.386;8.674;2022-09-09T19:43:37;18.70;87.00
18712;DHT22;9485;49.386;8.674;2022-09-09T19:48:58;18.70;87.40
18712;DHT22;9485;49.386;8.674;2022-09-09T19:54:21;18.70;87.80
18712;DHT22;9485;49.386;8.674;2022-09-09T19:59:42;18.60;87.80
18712;DHT22;9485;49.386;8.674;2022-09-09T20:05:04;18.60;87.80
18712;DHT22;9485;49.386;8.674;2022-09-09T20:10:26;18.60;87.90
18712;DHT22;9485;49.386;8.674;2022-09-09T20:15:55;18.60;88.00
18712;DHT22;9485;49.386;8.674;2022-09-09T20:21:19;18.50;88.60
18712;DHT22;9485;49.386;8.674;2022-09-09T20:26:43;18.50;89.00
18712;DHT22;9485;49.386;8.674;2022-09-09T20:32:05;18.60;89.20
18712;DHT22;9485;49.386;8.674;2022-09-09T20:37:26;18.60;89.20
18712;DHT22;9485;49.386;8.674;2022-09-09T20:42:49;18.60;89.40
18712;DHT22;9485;49.386;8.674;2022-09-09T20:48:10;18.70;89.50
18712;DHT22;9485;49.386;8.674;2022-09-09T20:53:31;18.70;89.60
18712;DHT22;9485;49.386;8.674;2022-09-09T20:58:54;18.70;89.60
18712;DHT22;9485;49.386;8.674;2022-09-09T21:04:16;18.70;89.60
18712;DHT22;9485;49.386;8.674;2022-09-09T21:09:38;18.70;89.60
18712;DHT22;9485;49.386;8.674;2022-09-09T21:15:02;18.60;89.60
18712;DHT22;9485;49.386;8.674;2022-09-09T21:20:23;18.70;90.10
18712;DHT22;9485;49.386;8.674;2022-09-09T21:25:44;18.80;90.10
18712;DHT22;9485;49.386;8.674;2022-09-09T21:31:12;18.80;90.20
18712;DHT22;9485;49.386;8.674;2022-09-09T21:36:34;18.90;90.30
18712;DHT22;9485;49.386;8.674;2022-09-09T21:41:55;18.80;90.30
18712;DHT22;9485;49.386;8.674;2022-09-09T21:47:17;18.90;90.30
18712;DHT22;9485;49.386;8.674;2022-09-09T21:52:38;18.90;90.30
18712;DHT22;9485;49.386;8.674;2022-09-09T21:57:59;18.80;90.30
18712;DHT22;9485;49.386;8.674;2022-09-09T22:03:21;19.00;90.20
18712;DHT22;9485;49.386;8.674;2022-09-09T22:08:42;18.80;90.20
18712;DHT22;9485;49.386;8.674;2022-09-09T22:14:04;18.70;90.20
18712;DHT22;9485;49.386;8.674;2022-09-09T22:19:26;18.70;90.10
18712;DHT22;9485;49.386;8.674;2022-09-09T22:24:47;18.60;90.10
18712;DHT22;9485;49.386;8.674;2022-09-09T22:30:08;18.60;90.20
18712;DHT22;9485;49.386;8.674;2022-09-09T22:35:31;18.40;90.20
18712;DHT22;9485;49.386;8.674;2022-09-09T22:41:00;18.40;90.30
18712;DHT22;9485;49.386;8.674;2022-09-09T22:46:22;18.30;90.40
18712;DHT22;9485;49.386;8.674;2022-09-09T22:51:44;18.30;90.50
18712;DHT22;9485;49.386;8.674;2022-09-09T22:57:05;18.30;90.60
18712;DHT22;9485;49.386;8.674;2022-09-09T23:02:27;18.30;90.70
18712;DHT22;9485;49.386;8.674;2022-09-09T23:07:50;18.40;90.70
18712;DHT22;9485;49.386;8.674;2022-09-09T23:13:12;18.40;90.80
18712;DHT22;9485;49.386;8.674;2022-09-09T23:18:32;18.40;90.70
18712;DHT22;9485;49.386;8.674;2022-09-09T23:23:55;18.40;90.70
18712;DHT22;9485;49.386;8.674;2022-09-09T23:29:17;18.40;90.70
18712;DHT22;9485;49.386;8.674;2022-09-09T23:34:38;18.40;90.70
18712;DHT22;9485;49.386;8.674;2022-09-09T23:40:00;18.40;90.60
18712;DHT22;9485;49.386;8.674;2022-09-09T23:45:21;18.40;90.60
18712;DHT22;9485;49.386;8.674;2022-09-09T23:50:42;18.40;90.60
18712;DHT22;9485;49.386;8.674;2022-09-09T23:56:05;18.40;90.60
